createdAt,value
2022-10-19T00:01:21.098Z,9.54
2022-10-19T00:03:51.449Z,9.50
2022-10-19T00:06:26.112Z,9.45
2022-10-19T00:08:59.798Z,9.41
2022-10-19T00:11:29.230Z,9.35
2022-10-19T00:13:58.087Z,9.30
2022-10-19T00:16:27.854Z,9.27
2022-10-19T00:18:59.994Z,9.23
2022-10-19T00:21:28.176Z,9.21
2022-10-19T00:23:55.745Z,9.16
2022-10-19T00:26:23.564Z,9.15
2022-10-19T00:28:54.764Z,9.12
2022-10-19T00:31:22.589Z,9.10
2022-10-19T00:33:50.151Z,9.08
2022-10-19T00:36:29.816Z,9.09
2022-10-19T00:38:58.761Z,9.06
2022-10-19T00:41:32.504Z,9.04
2022-10-19T00:44:08.019Z,9.01
2022-10-19T00:46:38.232Z,8.98
2022-10-19T00:49:13.553Z,8.95
2022-10-19T00:51:45.107Z,8.93
2022-10-19T00:54:12.887Z,8.90
2022-10-19T00:56:43.226Z,8.88
2022-10-19T00:59:12.977Z,8.86
2022-10-19T01:01:42.480Z,8.84
2022-10-19T01:04:11.451Z,8.85
2022-10-19T01:06:40.767Z,8.84
2022-10-19T01:09:08.963Z,8.84
2022-10-19T01:12:06.423Z,8.83
2022-10-19T01:15:08.081Z,8.82
2022-10-19T01:17:49.748Z,8.81
2022-10-19T01:20:51.062Z,8.80
2022-10-19T01:23:27.483Z,8.79
2022-10-19T01:26:02.475Z,8.79
2022-10-19T01:28:57.362Z,8.81
2022-10-19T01:31:45.198Z,8.80
2022-10-19T01:34:42.154Z,8.81
2022-10-19T01:37:30.763Z,8.80
2022-10-19T01:40:04.313Z,8.82
2022-10-19T01:45:29.363Z,8.88
2022-10-19T01:48:05.809Z,8.92
2022-10-19T01:50:43.452Z,8.99
2022-10-19T01:53:13.448Z,9.05
2022-10-19T01:55:45.018Z,9.12
2022-10-19T01:58:16.697Z,9.16
2022-10-19T02:00:46.824Z,9.14
2022-10-19T02:03:15.893Z,9.13
2022-10-19T02:05:44.975Z,9.14
2022-10-19T02:08:17.216Z,9.12
2022-10-19T02:10:46.525Z,9.11
2022-10-19T02:13:15.658Z,9.09
2022-10-19T02:15:48.266Z,9.09
2022-10-19T02:18:20.584Z,9.04
2022-10-19T02:20:48.243Z,9.00
2022-10-19T02:23:19.046Z,8.98
2022-10-19T02:25:46.832Z,8.99
2022-10-19T02:28:14.498Z,8.98
2022-10-19T02:30:42.723Z,9.00
2022-10-19T02:33:12.405Z,9.01
2022-10-19T02:35:40.560Z,9.05
2022-10-19T02:38:11.694Z,9.09
2022-10-19T02:40:43.571Z,9.12
2022-10-19T02:43:14.811Z,9.18
2022-10-19T02:45:48.808Z,9.23
2022-10-19T02:48:22.895Z,9.26
2022-10-19T02:50:52.118Z,9.29
2022-10-19T02:53:19.651Z,9.32
2022-10-19T02:55:50.827Z,9.35
2022-10-19T02:58:18.497Z,9.39
2022-10-19T03:00:46.175Z,9.43
2022-10-19T03:03:13.763Z,9.48
2022-10-19T03:05:41.316Z,9.50
2022-10-19T03:08:08.849Z,9.51
2022-10-19T03:10:36.337Z,9.55
2022-10-19T03:13:03.837Z,9.60
2022-10-19T03:15:31.315Z,9.62
2022-10-19T03:17:58.879Z,9.64
2022-10-19T03:20:26.402Z,9.66
2022-10-19T03:25:26.330Z,9.70
2022-10-19T03:27:53.931Z,9.71
2022-10-19T03:30:21.440Z,9.72
2022-10-19T03:32:48.939Z,9.73
2022-10-19T03:35:16.591Z,9.73
2022-10-19T03:37:44.049Z,9.73
2022-10-19T03:40:11.562Z,9.73
2022-10-19T03:42:39.082Z,9.73
2022-10-19T03:45:07.194Z,9.71
2022-10-19T03:47:35.282Z,9.68
2022-10-19T03:50:03.072Z,9.63
2022-10-19T03:52:30.528Z,9.60
2022-10-19T03:54:58.646Z,9.58
2022-10-19T03:57:26.165Z,9.58
2022-10-19T03:59:53.649Z,9.60
2022-10-19T04:02:21.200Z,9.62
2022-10-19T04:04:48.738Z,9.64
2022-10-19T04:07:16.162Z,9.66
2022-10-19T04:09:43.742Z,9.68
2022-10-19T04:12:11.192Z,9.67
2022-10-19T04:14:56.383Z,9.70
2022-10-19T04:17:25.541Z,9.72
2022-10-19T04:19:52.998Z,9.74
2022-10-19T04:22:20.478Z,9.74
2022-10-19T04:24:47.971Z,9.78
2022-10-19T04:27:15.492Z,9.79
2022-10-19T04:29:43.038Z,9.81
2022-10-19T04:32:10.634Z,9.81
2022-10-19T04:34:39.985Z,9.81
2022-10-19T04:37:07.729Z,9.80
2022-10-19T04:39:39.436Z,9.79
2022-10-19T04:42:06.989Z,9.78
2022-10-19T04:44:34.508Z,9.77
2022-10-19T04:47:02.130Z,9.74
2022-10-19T04:49:29.615Z,9.72
2022-10-19T04:51:57.194Z,9.69
2022-10-19T04:54:24.985Z,9.63
2022-10-19T04:56:53.953Z,9.59
2022-10-19T04:59:21.510Z,9.53
2022-10-19T05:01:49.051Z,9.48
2022-10-19T05:04:16.532Z,9.43
2022-10-19T05:06:44.029Z,9.38
2022-10-19T05:09:11.696Z,9.32
2022-10-19T05:11:39.200Z,9.30
2022-10-19T05:14:06.707Z,9.26
2022-10-19T05:16:34.217Z,9.24
2022-10-19T05:19:02.099Z,9.23
2022-10-19T05:21:29.712Z,9.24
2022-10-19T05:23:57.725Z,9.27
2022-10-19T05:26:27.016Z,9.29
2022-10-19T05:28:57.297Z,9.31
2022-10-19T05:31:27.931Z,9.32
2022-10-19T05:33:56.528Z,9.34
2022-10-19T05:36:28.888Z,9.35
2022-10-19T05:38:57.697Z,9.38
2022-10-19T05:41:26.661Z,9.39
2022-10-19T05:43:59.312Z,9.40
2022-10-19T05:46:28.563Z,9.41
2022-10-19T05:48:57.758Z,9.41
2022-10-19T05:51:27.031Z,9.42
2022-10-19T05:53:55.687Z,9.44
2022-10-19T05:56:29.925Z,9.44
2022-10-19T05:58:59.310Z,9.45
2022-10-19T06:01:28.221Z,9.42
2022-10-19T06:03:57.458Z,9.42
2022-10-19T06:06:26.982Z,9.43
2022-10-19T06:08:56.561Z,9.44
2022-10-19T06:11:27.790Z,9.43
2022-10-19T06:13:57.572Z,9.42
2022-10-19T06:16:27.093Z,9.40
2022-10-19T06:18:55.892Z,9.38
2022-10-19T06:21:25.740Z,9.38
2022-10-19T06:23:55.613Z,9.40
2022-10-19T06:26:23.990Z,9.46
2022-10-19T06:28:52.034Z,9.51
2022-10-19T06:31:19.594Z,9.55
2022-10-19T06:33:49.234Z,9.59
2022-10-19T06:36:19.992Z,9.63
2022-10-19T06:38:48.254Z,9.66
2022-10-19T06:41:16.837Z,9.70
2022-10-19T06:43:44.641Z,9.72
2022-10-19T06:46:17.437Z,9.76
2022-10-19T06:48:45.096Z,9.79
2022-10-19T06:51:13.773Z,9.80
2022-10-19T06:53:41.234Z,9.81
2022-10-19T06:56:10.545Z,9.83
2022-10-19T06:58:38.863Z,9.84
2022-10-19T07:01:08.327Z,9.85
2022-10-19T07:03:37.279Z,9.85
2022-10-19T07:06:08.287Z,9.86
2022-10-19T07:08:37.859Z,9.87
2022-10-19T07:11:08.701Z,9.88
2022-10-19T07:13:36.300Z,9.86
2022-10-19T07:16:19.646Z,9.89
2022-10-19T07:18:51.278Z,9.89
2022-10-19T07:21:20.759Z,9.93
2022-10-19T07:23:48.841Z,9.97
2022-10-19T07:26:23.528Z,10.02
2022-10-19T07:28:51.607Z,10.05
2022-10-19T07:31:21.716Z,10.10
2022-10-19T07:33:54.194Z,10.15
2022-10-19T07:36:22.456Z,10.20
2022-10-19T07:38:50.019Z,10.22
2022-10-19T07:41:20.410Z,10.25
2022-10-19T07:43:49.422Z,10.30
2022-10-19T07:46:29.268Z,10.36
2022-10-19T07:48:56.907Z,10.39
2022-10-19T07:51:24.577Z,10.41
2022-10-19T07:53:52.162Z,10.45
2022-10-19T07:56:24.845Z,10.48
2022-10-19T07:58:54.371Z,10.53
2022-10-19T08:01:25.091Z,10.59
2022-10-19T08:06:42.856Z,10.71
2022-10-19T08:09:15.571Z,10.76
2022-10-19T08:11:50.496Z,10.81
2022-10-19T08:14:17.987Z,10.83
2022-10-19T08:16:45.527Z,10.85
2022-10-19T08:19:15.312Z,10.88
2022-10-19T08:21:45.523Z,10.88
2022-10-19T08:24:15.006Z,10.86
2022-10-19T08:26:43.163Z,10.85
2022-10-19T08:29:14.497Z,10.89
2022-10-19T08:31:43.596Z,10.90
2022-10-19T08:34:12.732Z,10.90
2022-10-19T08:36:43.293Z,10.89
2022-10-19T08:39:12.784Z,10.91
2022-10-19T08:41:40.368Z,10.93
2022-10-19T08:44:20.409Z,10.92
2022-10-19T08:47:23.585Z,10.88
2022-10-19T08:49:51.844Z,10.92
2022-10-19T08:52:23.371Z,10.96
2022-10-19T08:54:56.490Z,11.04
2022-10-19T08:57:48.082Z,11.08
2022-10-19T09:00:19.860Z,11.08
2022-10-19T09:03:13.485Z,11.10
2022-10-19T09:06:02.856Z,11.13
2022-10-19T09:08:31.036Z,11.15
2022-10-19T09:10:59.076Z,11.17
2022-10-19T09:14:03.726Z,11.21
2022-10-19T09:16:29.133Z,11.25
2022-10-19T09:18:56.808Z,11.27
2022-10-19T09:21:45.919Z,11.28
2022-10-19T09:24:42.603Z,11.31
2022-10-19T09:27:39.138Z,11.33
2022-10-19T09:30:21.233Z,11.37
2022-10-19T09:33:00.421Z,11.41
2022-10-19T09:35:33.790Z,11.43
2022-10-19T09:38:02.355Z,11.44
2022-10-19T09:40:31.080Z,11.49
2022-10-19T09:43:02.810Z,11.52
2022-10-19T09:45:46.102Z,11.54
2022-10-19T09:48:39.719Z,11.55
2022-10-19T09:51:15.535Z,11.57
2022-10-19T09:53:49.969Z,11.59
2022-10-19T09:56:28.302Z,11.62
2022-10-19T09:58:58.583Z,11.65
2022-10-19T10:01:39.925Z,11.62
2022-10-19T10:04:15.600Z,11.64
2022-10-19T10:06:44.821Z,11.67
2022-10-19T10:09:22.362Z,11.68
2022-10-19T10:11:51.218Z,11.73
2022-10-19T10:14:25.120Z,11.79
2022-10-19T10:17:18.026Z,11.84
2022-10-19T10:19:51.308Z,11.96
2022-10-19T10:22:31.483Z,12.02
2022-10-19T10:24:59.667Z,12.09
2022-10-19T10:27:36.231Z,12.16
2022-10-19T10:30:15.787Z,12.18
2022-10-19T10:32:49.703Z,12.14
2022-10-19T10:35:35.054Z,12.15
2022-10-19T10:38:25.910Z,12.16
2022-10-19T10:40:59.948Z,12.19
2022-10-19T10:43:31.919Z,12.23
2022-10-19T10:46:22.797Z,12.24
2022-10-19T10:49:03.237Z,12.28
2022-10-19T10:51:50.718Z,12.36
2022-10-19T10:54:24.916Z,12.39
2022-10-19T10:57:11.796Z,12.41
2022-10-19T10:59:49.445Z,12.43
2022-10-19T11:02:36.173Z,12.42
2022-10-19T11:05:12.094Z,12.38
2022-10-19T11:07:45.105Z,12.33
2022-10-19T11:10:39.406Z,12.29
2022-10-19T11:13:25.495Z,12.27
2022-10-19T11:16:13.423Z,12.26
2022-10-19T11:18:43.366Z,12.29
2022-10-19T11:21:23.988Z,12.31
2022-10-19T11:24:41.932Z,12.32
2022-10-19T11:27:41.379Z,12.36
2022-10-19T11:30:17.830Z,12.40
2022-10-19T11:33:03.843Z,12.45
2022-10-19T11:35:52.970Z,12.45
2022-10-19T11:38:56.088Z,12.49
2022-10-19T11:41:53.319Z,12.55
2022-10-19T11:44:38.877Z,12.61
2022-10-19T11:47:50.993Z,12.59
2022-10-19T11:50:21.486Z,12.57
2022-10-19T11:52:55.055Z,12.57
2022-10-19T11:55:38.570Z,12.59
2022-10-19T11:58:48.939Z,12.53
2022-10-19T12:01:34.501Z,12.52
2022-10-19T12:04:04.933Z,12.48
2022-10-19T12:06:41.159Z,12.39
2022-10-19T12:09:24.842Z,12.38
2022-10-19T12:11:52.302Z,12.40
2022-10-19T12:14:28.231Z,12.47
2022-10-19T12:17:01.172Z,12.59
2022-10-19T12:19:50.810Z,12.64
2022-10-19T12:22:25.570Z,12.61
2022-10-19T12:24:55.570Z,12.56
2022-10-19T12:27:31.036Z,12.55
2022-10-19T12:30:04.671Z,12.56
2022-10-19T12:32:42.898Z,12.59
2022-10-19T12:35:29.198Z,12.59
2022-10-19T12:38:14.837Z,12.61
2022-10-19T12:41:03.508Z,12.59
2022-10-19T12:43:52.198Z,12.58
2022-10-19T12:46:31.452Z,12.56
2022-10-19T12:49:26.859Z,12.56
2022-10-19T12:51:56.308Z,12.51
2022-10-19T12:54:26.287Z,12.44
2022-10-19T12:56:56.262Z,12.38
2022-10-19T12:59:32.764Z,12.31
2022-10-19T13:02:05.029Z,12.23
2022-10-19T13:04:35.869Z,12.22
2022-10-19T13:07:08.661Z,12.20
2022-10-19T13:09:42.691Z,12.16
2022-10-19T13:12:16.190Z,12.10
2022-10-19T13:14:56.459Z,12.11
2022-10-19T13:17:47.103Z,12.06
2022-10-19T13:20:14.647Z,12.04
2022-10-19T13:23:01.608Z,12.05
2022-10-19T13:25:39.486Z,12.01
2022-10-19T13:28:07.071Z,11.92
2022-10-19T13:30:43.883Z,11.91
2022-10-19T13:33:29.765Z,11.84
2022-10-19T13:36:00.459Z,11.79
2022-10-19T13:38:39.851Z,11.77
2022-10-19T13:41:19.065Z,11.76
2022-10-19T13:44:04.935Z,11.76
2022-10-19T13:46:32.393Z,11.78
2022-10-19T13:49:27.762Z,11.79
2022-10-19T13:52:39.991Z,11.70
2022-10-19T13:55:35.224Z,11.70
2022-10-19T13:58:14.017Z,11.71
2022-10-19T14:00:53.841Z,11.74
2022-10-19T14:03:26.295Z,11.76
2022-10-19T14:06:26.025Z,11.74
2022-10-19T14:09:43.418Z,11.77
2022-10-19T14:12:31.187Z,11.78
2022-10-19T14:14:59.806Z,11.78
2022-10-19T14:17:34.092Z,11.79
2022-10-19T14:20:02.221Z,11.76
2022-10-19T14:22:36.501Z,11.75
2022-10-19T14:25:17.992Z,11.73
2022-10-19T14:27:46.627Z,11.73
2022-10-19T14:30:28.550Z,11.81
2022-10-19T14:32:59.482Z,11.89
2022-10-19T14:35:33.832Z,11.93
2022-10-19T14:38:02.898Z,11.87
2022-10-19T14:40:38.361Z,11.83
2022-10-19T14:43:24.385Z,11.85
2022-10-19T14:46:18.540Z,11.85
2022-10-19T14:48:50.890Z,11.85
2022-10-19T14:51:24.507Z,11.84
2022-10-19T14:54:01.713Z,11.83
2022-10-19T14:56:38.291Z,11.77
2022-10-19T14:59:31.119Z,11.76
2022-10-19T15:02:02.311Z,11.71
2022-10-19T15:04:34.518Z,11.65
2022-10-19T15:07:04.998Z,11.59
2022-10-19T15:09:47.778Z,11.59
2022-10-19T15:12:20.284Z,11.56
2022-10-19T15:14:48.746Z,11.55
2022-10-19T15:17:37.984Z,11.55
2022-10-19T15:20:23.238Z,11.49
2022-10-19T15:22:50.910Z,11.48
2022-10-19T15:25:34.450Z,11.48
2022-10-19T15:28:34.982Z,11.48
2022-10-19T15:31:13.688Z,11.49
2022-10-19T15:33:52.692Z,11.46
2022-10-19T15:36:22.978Z,11.45
2022-10-19T15:39:32.907Z,11.44
2022-10-19T15:41:55.049Z,11.44
2022-10-19T15:44:45.619Z,11.45
2022-10-19T15:47:20.908Z,11.39
2022-10-19T15:49:53.051Z,11.38
2022-10-19T15:52:30.278Z,11.37
2022-10-19T15:54:59.913Z,11.36
2022-10-19T15:57:30.998Z,11.36
2022-10-19T16:00:01.049Z,11.34
2022-10-19T16:02:28.597Z,11.36
2022-10-19T16:04:56.300Z,11.36
2022-10-19T16:07:30.717Z,11.37
2022-10-19T16:09:58.782Z,11.35
2022-10-19T16:12:26.829Z,11.35
2022-10-19T16:14:54.843Z,11.36
2022-10-19T16:17:22.997Z,11.39
2022-10-19T16:19:51.362Z,11.37
2022-10-19T16:22:18.833Z,11.34
2022-10-19T16:24:46.374Z,11.33
2022-10-19T16:27:17.081Z,11.34
2022-10-19T16:29:44.759Z,11.37
2022-10-19T16:32:12.425Z,11.37
2022-10-19T16:34:40.605Z,11.40
2022-10-19T16:37:08.157Z,11.40
2022-10-19T16:39:35.773Z,11.40
2022-10-19T16:42:03.576Z,11.36
2022-10-19T16:44:31.127Z,11.30
2022-10-19T16:46:59.076Z,11.32
2022-10-19T16:49:26.721Z,11.30
2022-10-19T16:51:57.197Z,11.30
2022-10-19T16:54:30.159Z,11.30
2022-10-19T16:56:57.658Z,11.28
2022-10-19T16:59:25.164Z,11.28
2022-10-19T17:01:53.939Z,11.26
2022-10-19T17:04:22.095Z,11.25
2022-10-19T17:06:49.816Z,11.23
2022-10-19T17:12:05.656Z,11.19
2022-10-19T17:14:34.102Z,11.18
2022-10-19T17:17:01.712Z,11.14
2022-10-19T17:19:29.164Z,11.12
2022-10-19T17:21:57.752Z,11.09
2022-10-19T17:24:26.241Z,11.09
2022-10-19T17:26:54.204Z,11.07
2022-10-19T17:29:22.515Z,11.04
2022-10-19T17:31:50.213Z,11.03
2022-10-19T17:34:18.905Z,11.03
2022-10-19T17:36:47.624Z,11.02
2022-10-19T17:39:19.014Z,11.03
2022-10-19T17:41:48.146Z,11.03
2022-10-19T17:44:16.569Z,11.04
2022-10-19T17:46:44.426Z,11.05
2022-10-19T17:49:12.853Z,11.06
2022-10-19T17:51:41.071Z,11.07
2022-10-19T17:54:11.323Z,11.08
2022-10-19T17:56:40.110Z,11.05
2022-10-19T17:59:09.091Z,11.04
2022-10-19T18:01:38.041Z,11.03
2022-10-19T18:04:06.487Z,11.01
2022-10-19T18:06:36.627Z,10.98
2022-10-19T18:09:08.098Z,10.96
2022-10-19T18:11:40.874Z,10.98
2022-10-19T18:14:10.321Z,11.00
2022-10-19T18:16:46.989Z,11.00
2022-10-19T18:19:16.650Z,10.99
2022-10-19T18:21:46.754Z,11.00
2022-10-19T18:24:19.376Z,10.99
2022-10-19T18:26:48.402Z,10.99
2022-10-19T18:29:19.014Z,10.98
2022-10-19T18:31:51.811Z,10.98
2022-10-19T18:34:25.798Z,10.99
2022-10-19T18:36:54.466Z,11.01
2022-10-19T18:39:22.211Z,11.00
2022-10-19T18:41:52.529Z,11.01
2022-10-19T18:44:25.264Z,11.00
2022-10-19T18:46:56.391Z,11.00
2022-10-19T18:49:24.457Z,11.00
2022-10-19T18:51:55.130Z,11.01
2022-10-19T18:54:26.363Z,11.02
2022-10-19T18:56:55.074Z,11.01
2022-10-19T18:59:22.807Z,11.00
2022-10-19T19:01:50.573Z,11.00
2022-10-19T19:04:18.153Z,11.00
2022-10-19T19:06:45.724Z,10.97
2022-10-19T19:09:13.356Z,10.94
2022-10-19T19:11:41.284Z,10.96
2022-10-19T19:14:14.910Z,10.98
2022-10-19T19:16:44.134Z,11.00
2022-10-19T19:19:13.802Z,11.00
2022-10-19T19:21:44.244Z,10.99
2022-10-19T19:24:15.430Z,11.01
2022-10-19T19:26:47.539Z,10.98
2022-10-19T19:29:16.487Z,10.98
2022-10-19T19:31:44.158Z,10.99
2022-10-19T19:34:11.915Z,10.96
2022-10-19T19:36:46.567Z,10.99
2022-10-19T19:39:17.236Z,11.02
2022-10-19T19:41:44.843Z,11.03
2022-10-19T19:44:12.384Z,11.02
2022-10-19T19:46:40.678Z,11.04
2022-10-19T19:49:08.375Z,11.00
2022-10-19T19:51:35.943Z,11.00
2022-10-19T19:54:04.440Z,10.98
2022-10-19T19:56:32.846Z,10.98
2022-10-19T19:59:03.452Z,10.98
2022-10-19T20:01:31.829Z,10.98
2022-10-19T20:04:00.155Z,10.98
2022-10-19T20:06:28.383Z,10.99
2022-10-19T20:08:56.558Z,10.96
2022-10-19T20:11:26.890Z,10.96
2022-10-19T20:13:55.152Z,10.94
2022-10-19T20:16:29.475Z,10.92
2022-10-19T20:19:02.028Z,10.93
2022-10-19T20:21:31.651Z,10.93
2022-10-19T20:24:00.251Z,10.94
2022-10-19T20:26:28.628Z,10.95
2022-10-19T20:28:57.040Z,10.95
2022-10-19T20:31:25.341Z,10.94
2022-10-19T20:33:52.990Z,10.94
2022-10-19T20:36:23.368Z,10.95
2022-10-19T20:38:56.686Z,10.94
2022-10-19T20:41:27.099Z,10.94
2022-10-19T20:43:55.778Z,10.94
2022-10-19T20:46:32.584Z,10.93
2022-10-19T20:49:01.764Z,10.92
2022-10-19T20:51:36.972Z,10.90
2022-10-19T20:54:07.839Z,10.90
2022-10-19T20:56:37.499Z,10.88
2022-10-19T20:59:14.399Z,10.88
2022-10-19T21:01:43.715Z,10.84
2022-10-19T21:04:14.233Z,10.83
2022-10-19T21:06:43.976Z,10.80
2022-10-19T21:09:13.773Z,10.74
2022-10-19T21:11:43.346Z,10.71
2022-10-19T21:14:26.926Z,10.70
2022-10-19T21:16:57.950Z,10.69
2022-10-19T21:19:27.190Z,10.70
2022-10-19T21:22:01.771Z,10.71
2022-10-19T21:24:34.420Z,10.73
2022-10-19T21:27:04.923Z,10.76
2022-10-19T21:29:32.555Z,10.73
2022-10-19T21:32:00.100Z,10.74
2022-10-19T21:34:30.515Z,10.77
2022-10-19T21:36:58.653Z,10.74
2022-10-19T21:39:26.276Z,10.71
2022-10-19T21:41:53.779Z,10.71
2022-10-19T21:44:23.202Z,10.71
2022-10-19T21:46:50.935Z,10.72
2022-10-19T21:49:18.596Z,10.71
2022-10-19T21:51:53.619Z,10.73
2022-10-19T21:54:27.715Z,10.72
2022-10-19T21:56:56.754Z,10.71
2022-10-19T21:59:24.569Z,10.71
2022-10-19T22:01:54.645Z,10.72
2022-10-19T22:04:22.977Z,10.69
2022-10-19T22:06:50.913Z,10.69
2022-10-19T22:09:21.186Z,10.67
2022-10-19T22:11:48.929Z,10.65
2022-10-19T22:14:16.780Z,10.67
2022-10-19T22:16:44.723Z,10.66
2022-10-19T22:19:13.107Z,10.64
2022-10-19T22:21:41.083Z,10.62
2022-10-19T22:24:13.609Z,10.61
2022-10-19T22:26:46.455Z,10.61
2022-10-19T22:29:14.414Z,10.59
2022-10-19T22:31:42.287Z,10.55
2022-10-19T22:34:14.103Z,10.54
2022-10-19T22:36:42.368Z,10.54
2022-10-19T22:39:10.705Z,10.55
2022-10-19T22:42:18.893Z,10.52
2022-10-19T22:44:46.431Z,10.53
2022-10-19T22:47:13.922Z,10.53
2022-10-19T22:49:41.490Z,10.58
2022-10-19T22:52:09.025Z,10.60
2022-10-19T22:54:36.588Z,10.59
2022-10-19T22:57:04.536Z,10.61
2022-10-19T22:59:32.039Z,10.61
2022-10-19T23:01:59.631Z,10.61
2022-10-19T23:04:27.397Z,10.60
2022-10-19T23:06:55.079Z,10.63
2022-10-19T23:09:22.726Z,10.66
2022-10-19T23:11:53.381Z,10.66
2022-10-19T23:14:20.916Z,10.68
2022-10-19T23:16:48.417Z,10.72
2022-10-19T23:19:15.987Z,10.74
2022-10-19T23:21:43.457Z,10.78
2022-10-19T23:24:11.013Z,10.83
2022-10-19T23:26:38.612Z,10.82
2022-10-19T23:29:06.175Z,10.75
2022-10-19T23:31:33.883Z,10.66
2022-10-19T23:34:01.516Z,10.58
2022-10-19T23:36:29.451Z,10.51
2022-10-19T23:38:58.310Z,10.46
2022-10-19T23:41:26.119Z,10.44
2022-10-19T23:43:53.960Z,10.40
2022-10-19T23:46:21.563Z,10.38
2022-10-19T23:48:49.057Z,10.38
2022-10-19T23:51:19.704Z,10.35
2022-10-19T23:53:49.761Z,10.34
2022-10-19T23:56:20.688Z,10.33
2022-10-19T23:58:48.720Z,10.29
